Terminal Aerodrome Forecast
Issued by NWS Blacksburg, VA

Home | Current Version | Previous Version | Text Only | Print | Product List | Glossary On
Versions: 1 2 3 4 5 6 7 8 9 10 11 12 13 14 15 16 17 18 19 20 21 22 23 24 25 26 27 28 29 30 31 32 33 34
000
FTUS41 KRNK 191122
TAFBLF
TAF
KBLF 191122Z 1912/2012 23003KT P6SM SCT035 BKN060
      TEMPO 1912/1914 4SM BR OVC020
     FM191400 26006KT P6SM BKN060
     FM191600 24006KT P6SM VCSH SCT015 BKN045
     FM191900 25008KT P6SM VCTS SCT025CB BKN040
     FM200000 25005KT P6SM SCT030=

USA.gov is the U.S. government's official web portal to all federal, state and local government web resources and services.